Terminal Aerodrome Forecast
Issued by NWS Austin/San Antonio, TX

Current Version | Previous Version | Text Only | Print | Product List | Glossary Off
Versions: 1 2 3 4 5 6 7 8 9 10 11 12 13 14 15 16 17 18 19 20 21 22 23 24

010
FTUS44 KEWX 080520
TAFDRT
TAF
KDRT 080520Z 0806/0906 36008KT P6SM OVC015
     FM080900 34011G21KT P6SM OVC010
     FM082300 34009KT P6SM OVC050
     FM090400 34004KT P6SM OVC025=

USA.gov is the U.S. government's official web portal to all federal, state and local government web resources and services.